首页
METAR-TAF:

METAR-TAF

机场 :

普里斯提納國際機場

普里什蒂纳, 科索沃

纬度: 42-34-27N, 经度: 21-02-09E, 海拔: 545米

当前天气观测

该预报发布于25分钟前的10:30 UTC
风速10节,风向南转南东
温度 33°C
湿度 36%
气压 1011 hPa
能见度10公里或以上
1500米以下无云,无积雨云

METAR: BKPR 201030Z 16010KT CAVOK 33/16 Q1011 NOSIG

时间: 12:55 (10:55 UTC)

预报

该预报发布于5小时和25分钟前的05:30 UTC
预报有效从20日的 06点(UTC)到 21日的 06点(UTC)
风速8节,风向
能见度10公里或以上
1500米以下无云,无积雨云
短暂存在
从 20日的 13点(UTC)到 20日的 20点(UTC)
风速15节,风向多变,有时为25节阵风
能見度: 3000
散云层高于3000英尺, 积雨云.
雷暴, 雨,

TAF: BKPR 200530Z 2006/2106 35008KT CAVOK TEMPO 2013/2020 VRB15G25KT 3000 TSRA SCT030CB

超过4000个机场的气象观测和天气预报(METAR&TAF报告)。

可查询的气象台以黄色和红色小点在地图上表示。

将鼠标移到小点上方,可查看气象台名称。

然后点击查看天气观测和预报。

如需切换地图:点击带黑十字的绿色按钮放大地图;点击带横线的绿色按钮缩小地图;或者点击绿色箭头查看邻近地区的地图。


METAR-TAF: